createdAt,value
2018-02-04T00:00:01.358Z,9.50
2018-02-04T00:02:29.462Z,5.32
2018-02-04T00:04:57.849Z,6.32
2018-02-04T00:07:26.310Z,5.95
2018-02-04T00:09:54.963Z,6.50
2018-02-04T00:12:23.325Z,7.93
2018-02-04T00:14:51.698Z,7.45
2018-02-04T00:17:20.041Z,9.38
2018-02-04T00:19:48.406Z,11.98
2018-02-04T00:22:28.948Z,13.27
2018-02-04T00:24:57.333Z,13.15
2018-02-04T00:27:25.709Z,16.80
2018-02-04T00:29:54.079Z,16.70
2018-02-04T00:32:22.457Z,21.50
2018-02-04T00:34:50.905Z,19.10
2018-02-04T00:37:19.307Z,17.55
2018-02-04T00:39:47.761Z,20.20
2018-02-04T00:42:16.164Z,23.08
2018-02-04T00:44:44.549Z,23.25
2018-02-04T00:47:13.211Z,26.37
2018-02-04T00:49:41.576Z,28.02
2018-02-04T00:52:09.950Z,26.75
2018-02-04T00:54:38.333Z,31.08
2018-02-04T00:57:06.726Z,33.40
2018-02-04T00:59:35.439Z,33.17
2018-02-04T01:02:03.789Z,35.60
2018-02-04T01:04:32.141Z,37.55
2018-02-04T01:07:00.540Z,35.97
2018-02-04T01:09:28.898Z,31.10
2018-02-04T01:11:57.576Z,22.60
2018-02-04T01:14:25.962Z,20.67
2018-02-04T01:16:54.366Z,25.45
2018-02-04T01:19:22.755Z,22.65
2018-02-04T01:21:51.110Z,24.90
2018-02-04T01:24:19.888Z,21.15
2018-02-04T01:26:48.241Z,21.30
2018-02-04T01:29:16.622Z,23.62
2018-02-04T01:31:45.293Z,18.55
2018-02-04T01:34:13.944Z,21.30
2018-02-04T01:36:42.711Z,20.15
2018-02-04T01:39:11.553Z,20.33
2018-02-04T01:41:40.564Z,20.05
2018-02-04T01:44:09.472Z,20.35
2018-02-04T01:46:38.075Z,21.27
2018-02-04T01:49:06.566Z,26.98
2018-02-04T01:51:34.981Z,22.15
2018-02-04T01:54:03.512Z,29.95
2018-02-04T01:56:32.049Z,27.77
2018-02-04T01:59:01.219Z,30.25
2018-02-04T02:01:29.690Z,30.60
2018-02-04T02:03:58.333Z,26.62
2018-02-04T02:06:26.776Z,34.30
2018-02-04T02:08:55.399Z,30.80
2018-02-04T02:11:24.356Z,33.42
2018-02-04T02:13:53.774Z,36.50
2018-02-04T02:16:22.323Z,33.28
2018-02-04T02:18:50.740Z,37.85
2018-02-04T02:21:19.807Z,34.88
2018-02-04T02:23:48.807Z,40.90
2018-02-04T02:26:18.375Z,41.42
2018-02-04T02:28:49.015Z,44.13
2018-02-04T02:31:17.772Z,45.83
2018-02-04T02:33:46.320Z,38.58
2018-02-04T02:36:14.951Z,45.47
2018-02-04T02:38:43.592Z,45.33
2018-02-04T02:41:12.270Z,53.33
2018-02-04T02:43:40.724Z,50.55
2018-02-04T02:46:09.604Z,50.22
2018-02-04T02:48:38.052Z,68.12
2018-02-04T02:51:06.543Z,63.78
2018-02-04T02:53:35.093Z,54.47
2018-02-04T02:56:03.877Z,63.50
2018-02-04T02:58:32.939Z,64.57
2018-02-04T03:01:01.637Z,66.35
2018-02-04T03:03:30.101Z,54.50
2018-02-04T03:05:59.005Z,54.72
2018-02-04T03:08:27.895Z,53.28
2018-02-04T03:10:56.629Z,56.10
2018-02-04T03:13:25.304Z,51.15
2018-02-04T03:15:55.063Z,54.80
2018-02-04T03:18:23.533Z,45.38
2018-02-04T03:20:52.472Z,45.67
2018-02-04T03:23:20.851Z,36.30
2018-02-04T03:25:49.295Z,36.85
2018-02-04T03:28:18.001Z,36.22
2018-02-04T03:30:46.547Z,33.72
2018-02-04T03:33:15.319Z,32.15
2018-02-04T03:35:43.827Z,33.53
2018-02-04T03:38:12.248Z,29.42
2018-02-04T03:40:40.709Z,36.63
2018-02-04T03:43:09.343Z,35.25
2018-02-04T03:45:38.307Z,31.65
2018-02-04T03:48:06.864Z,32.50
2018-02-04T03:50:35.868Z,33.80
2018-02-04T03:53:04.541Z,25.75
2018-02-04T03:55:33.727Z,30.60
2018-02-04T03:58:02.573Z,28.08
2018-02-04T04:00:33.997Z,23.25
2018-02-04T04:03:02.463Z,22.90
2018-02-04T04:05:31.158Z,26.00
2018-02-04T04:07:59.663Z,28.77
2018-02-04T04:10:28.028Z,25.17
2018-02-04T04:12:56.536Z,23.20
2018-02-04T04:15:25.132Z,22.98
2018-02-04T04:17:54.063Z,30.20
2018-02-04T04:20:22.548Z,25.67
2018-02-04T04:22:50.923Z,25.73
2018-02-04T04:25:19.599Z,26.00
2018-02-04T04:27:48.142Z,28.85
2018-02-04T04:30:17.130Z,29.85
2018-02-04T04:32:45.803Z,28.42
2018-02-04T04:35:14.246Z,30.08
2018-02-04T04:37:42.761Z,27.05
2018-02-04T04:40:11.215Z,33.25
2018-02-04T04:42:39.915Z,29.10
2018-02-04T04:45:08.370Z,30.33
2018-02-04T04:47:36.886Z,30.40
2018-02-04T04:50:05.419Z,28.98
2018-02-04T04:52:33.950Z,33.85
2018-02-04T04:55:03.211Z,29.73
2018-02-04T04:57:32.007Z,32.65
2018-02-04T05:00:01.323Z,34.50
2018-02-04T05:02:30.209Z,28.67
2018-02-04T05:04:58.642Z,36.85
2018-02-04T05:07:27.167Z,33.53
2018-02-04T05:09:56.111Z,32.83
2018-02-04T05:12:25.113Z,31.55
2018-02-04T05:14:53.722Z,31.60
2018-02-04T05:17:22.556Z,34.92
2018-02-04T05:19:51.528Z,31.12
2018-02-04T05:22:20.824Z,33.65
2018-02-04T05:24:49.477Z,33.90
2018-02-04T05:27:18.056Z,32.13
2018-02-04T05:29:46.942Z,27.42
2018-02-04T05:32:16.226Z,26.65
2018-02-04T05:34:44.790Z,24.40
2018-02-04T05:37:13.295Z,28.90
2018-02-04T05:39:42.160Z,27.80
2018-02-04T05:42:11.025Z,27.48
2018-02-04T05:44:40.522Z,28.75
2018-02-04T05:47:09.890Z,28.15
2018-02-04T05:49:38.850Z,35.08
2018-02-04T05:52:07.407Z,32.70
2018-02-04T05:54:36.132Z,30.55
2018-02-04T05:57:04.888Z,29.90
2018-02-04T05:59:33.547Z,32.13
2018-02-04T06:02:02.376Z,34.55
2018-02-04T06:04:31.872Z,38.13
2018-02-04T06:07:00.703Z,36.95
2018-02-04T06:09:29.408Z,37.60
2018-02-04T06:11:57.761Z,31.58
2018-02-04T06:14:26.131Z,34.10
2018-02-04T06:16:54.790Z,36.42
2018-02-04T06:19:23.146Z,35.58
2018-02-04T06:21:51.528Z,32.45
2018-02-04T06:24:19.908Z,29.80
2018-02-04T06:26:48.266Z,30.23
2018-02-04T06:29:17.582Z,35.40
2018-02-04T06:31:45.946Z,36.45
2018-02-04T06:34:14.377Z,32.10
2018-02-04T06:36:42.766Z,34.85
2018-02-04T06:39:11.142Z,30.62
2018-02-04T06:41:39.498Z,32.35
2018-02-04T06:44:07.865Z,31.50
2018-02-04T06:46:36.519Z,30.50
2018-02-04T06:49:04.930Z,28.58
2018-02-04T06:51:33.288Z,29.50
2018-02-04T06:54:01.775Z,31.33
2018-02-04T06:56:30.134Z,26.45
2018-02-04T06:58:58.808Z,27.55
2018-02-04T07:01:27.187Z,29.15
2018-02-04T07:03:55.599Z,25.40
2018-02-04T07:06:23.981Z,28.67
2018-02-04T07:08:52.376Z,25.12
2018-02-04T07:11:21.062Z,28.17
2018-02-04T07:13:49.495Z,29.92
2018-02-04T07:16:17.908Z,31.67
2018-02-04T07:18:46.301Z,27.08
2018-02-04T07:21:14.700Z,25.90
2018-02-04T07:23:43.413Z,29.37
2018-02-04T07:26:11.835Z,27.67
2018-02-04T07:28:40.251Z,28.23
2018-02-04T07:31:08.610Z,28.08
2018-02-04T07:33:36.999Z,26.12
2018-02-04T07:36:05.788Z,27.52
2018-02-04T07:38:34.208Z,28.15
2018-02-04T07:41:02.591Z,29.52
2018-02-04T07:43:30.992Z,26.75
2018-02-04T07:45:59.403Z,26.02
2018-02-04T07:48:28.120Z,27.73
2018-02-04T07:50:56.539Z,29.25
2018-02-04T07:53:24.931Z,30.65
2018-02-04T07:55:53.329Z,25.15
2018-02-04T07:58:21.740Z,34.53
2018-02-04T08:00:50.291Z,26.08
2018-02-04T08:03:18.664Z,26.08
2018-02-04T08:05:47.041Z,22.33
2018-02-04T08:08:15.444Z,20.65
2018-02-04T08:10:43.860Z,25.05
2018-02-04T08:13:12.286Z,24.63
2018-02-04T08:15:40.769Z,25.88
2018-02-04T08:18:09.159Z,21.42
2018-02-04T08:20:37.661Z,23.35
2018-02-04T08:23:06.017Z,24.90
2018-02-04T08:25:34.487Z,23.35
2018-02-04T08:28:02.946Z,23.42
2018-02-04T08:30:31.422Z,31.25
2018-02-04T08:32:59.823Z,23.20
2018-02-04T08:35:28.225Z,24.70
2018-02-04T08:37:56.686Z,21.05
2018-02-04T08:40:25.165Z,21.90
2018-02-04T08:42:53.509Z,22.75
2018-02-04T08:45:21.927Z,25.60
2018-02-04T08:47:51.207Z,29.17
2018-02-04T08:50:19.660Z,26.73
2018-02-04T08:52:48.059Z,23.67
2018-02-04T08:55:16.469Z,25.85
2018-02-04T08:57:44.863Z,29.50
2018-02-04T09:00:13.241Z,22.50
2018-02-04T09:02:41.771Z,37.45
2018-02-04T09:05:10.173Z,26.08
2018-02-04T09:07:38.708Z,25.35
2018-02-04T09:10:07.133Z,22.17
2018-02-04T09:12:35.635Z,21.60
2018-02-04T09:15:04.651Z,20.98
2018-02-04T09:17:33.043Z,24.87
2018-02-04T09:20:01.448Z,24.73
2018-02-04T09:22:29.934Z,19.52
2018-02-04T09:24:58.334Z,17.60
2018-02-04T09:27:27.049Z,21.35
2018-02-04T09:29:55.599Z,21.08
2018-02-04T09:32:23.991Z,16.50
2018-02-04T09:34:52.468Z,18.92
2018-02-04T09:37:20.866Z,18.65
2018-02-04T09:39:50.433Z,17.12
2018-02-04T09:42:18.847Z,19.45
2018-02-04T09:44:47.237Z,16.83
2018-02-04T09:47:15.639Z,19.77
2018-02-04T09:49:44.002Z,16.87
2018-02-04T09:52:12.482Z,17.75
2018-02-04T09:54:40.885Z,20.30
2018-02-04T09:57:09.320Z,15.15
2018-02-04T09:59:37.696Z,18.25
2018-02-04T10:02:06.089Z,17.85
2018-02-04T10:04:34.573Z,21.95
2018-02-04T10:07:02.975Z,17.35
2018-02-04T10:09:31.380Z,22.05
2018-02-04T10:11:59.847Z,19.27
2018-02-04T10:14:28.247Z,19.37
2018-02-04T10:16:56.654Z,19.70
2018-02-04T10:19:25.045Z,18.30
2018-02-04T10:21:53.434Z,15.57
2018-02-04T10:24:21.847Z,17.12
2018-02-04T10:26:50.246Z,17.60
2018-02-04T10:29:18.962Z,19.45
2018-02-04T10:31:47.333Z,17.60
2018-02-04T10:34:15.692Z,18.23
2018-02-04T10:36:44.167Z,18.62
2018-02-04T10:39:12.545Z,17.10
2018-02-04T10:41:41.237Z,24.70
2018-02-04T10:44:09.647Z,19.12
2018-02-04T10:46:38.048Z,14.75
2018-02-04T10:49:06.446Z,16.65
2018-02-04T10:51:40.412Z,15.63
2018-02-04T10:54:08.772Z,13.93
2018-02-04T10:56:37.160Z,15.07
2018-02-04T10:59:05.625Z,14.32
2018-02-04T11:01:34.028Z,15.85
2018-02-04T11:04:03.397Z,15.60
2018-02-04T11:06:31.794Z,12.23
2018-02-04T11:09:00.268Z,17.05
2018-02-04T11:11:30.866Z,16.17
2018-02-04T11:13:59.323Z,13.70
2018-02-04T11:16:27.722Z,13.95
2018-02-04T11:18:56.133Z,15.82
2018-02-04T11:21:24.530Z,16.87
2018-02-04T11:23:53.203Z,13.13
2018-02-04T11:26:22.291Z,12.95
2018-02-04T11:28:51.045Z,17.00
2018-02-04T11:31:19.709Z,14.65
2018-02-04T11:33:48.617Z,15.55
2018-02-04T11:36:17.729Z,13.68
2018-02-04T11:38:46.197Z,13.60
2018-02-04T11:41:14.714Z,12.32
2018-02-04T11:43:43.484Z,12.80
2018-02-04T11:46:12.597Z,15.35
2018-02-04T11:48:41.400Z,14.65
2018-02-04T11:51:10.012Z,15.70
2018-02-04T11:53:38.484Z,13.82
2018-02-04T11:56:07.289Z,11.95
2018-02-04T11:58:35.845Z,14.52
2018-02-04T12:01:04.711Z,12.70
2018-02-04T12:03:33.461Z,12.18
2018-02-04T12:06:01.899Z,15.35
2018-02-04T12:08:30.651Z,13.20
2018-02-04T12:10:59.502Z,13.80
2018-02-04T12:13:28.617Z,14.75
2018-02-04T12:15:57.692Z,14.87
2018-02-04T12:18:26.459Z,12.32
2018-02-04T12:20:55.187Z,14.35
2018-02-04T12:23:23.991Z,13.50
2018-02-04T12:25:53.106Z,12.55
2018-02-04T12:28:21.866Z,11.80
2018-02-04T12:30:50.448Z,15.02
2018-02-04T12:33:18.937Z,11.80
2018-02-04T12:35:47.379Z,11.90
2018-02-04T12:38:15.991Z,11.18
2018-02-04T12:40:44.476Z,14.43
2018-02-04T12:43:12.895Z,14.55
2018-02-04T12:45:41.303Z,13.30
2018-02-04T12:48:09.774Z,12.48
2018-02-04T12:50:38.492Z,14.20
2018-02-04T12:53:06.892Z,14.68
2018-02-04T12:55:35.260Z,13.98
2018-02-04T12:58:03.999Z,12.50
2018-02-04T13:00:32.405Z,11.90
2018-02-04T13:03:00.868Z,15.00
2018-02-04T13:05:29.978Z,14.48
2018-02-04T13:07:58.467Z,13.80
2018-02-04T13:10:26.889Z,18.37
2018-02-04T13:12:55.278Z,15.10
2018-02-04T13:15:24.059Z,13.25
2018-02-04T13:17:52.456Z,13.80
2018-02-04T13:20:20.855Z,16.08
2018-02-04T13:22:49.234Z,13.77
2018-02-04T13:25:17.641Z,14.48
2018-02-04T13:27:46.268Z,13.75
2018-02-04T13:30:14.695Z,11.98
2018-02-04T13:32:43.371Z,12.73
2018-02-04T13:35:11.853Z,18.50
2018-02-04T13:37:40.305Z,20.92
2018-02-04T13:40:08.772Z,19.12
2018-02-04T13:42:37.164Z,16.98
2018-02-04T13:45:05.534Z,14.07
2018-02-04T13:47:33.920Z,12.10
2018-02-04T13:50:02.330Z,15.00
2018-02-04T13:52:30.877Z,13.70
2018-02-04T13:54:59.259Z,16.62
2018-02-04T13:57:27.834Z,14.02
2018-02-04T13:59:56.189Z,12.63
2018-02-04T14:02:24.581Z,13.38
2018-02-04T14:04:53.259Z,14.63
2018-02-04T14:07:21.646Z,16.00
2018-02-04T14:09:50.057Z,15.02
2018-02-04T14:12:18.451Z,14.55
2018-02-04T14:14:46.831Z,14.02
2018-02-04T14:17:15.359Z,12.40
2018-02-04T14:19:43.725Z,15.95
2018-02-04T14:22:12.192Z,15.70
2018-02-04T14:24:40.586Z,13.73
2018-02-04T14:27:09.206Z,17.45
2018-02-04T14:29:39.568Z,15.52
2018-02-04T14:32:08.070Z,15.25
2018-02-04T14:34:36.471Z,14.80
2018-02-04T14:37:04.859Z,18.83
2018-02-04T14:39:33.223Z,14.02
2018-02-04T14:42:01.979Z,16.70
2018-02-04T14:44:30.455Z,15.48
2018-02-04T14:46:58.849Z,15.32
2018-02-04T14:49:27.214Z,15.80
2018-02-04T14:51:55.588Z,27.62
2018-02-04T14:54:24.302Z,12.15
2018-02-04T14:56:52.718Z,15.85
2018-02-04T14:59:21.104Z,12.80
2018-02-04T15:01:49.466Z,12.57
2018-02-04T15:04:17.832Z,11.93
2018-02-04T15:06:46.275Z,12.40
2018-02-04T15:09:14.628Z,10.82
2018-02-04T15:11:43.005Z,11.18
2018-02-04T15:14:11.401Z,17.23
2018-02-04T15:16:39.819Z,14.15
2018-02-04T15:19:08.245Z,13.65
2018-02-04T15:21:36.671Z,12.18
2018-02-04T15:24:05.073Z,11.75
2018-02-04T15:26:33.487Z,11.68
2018-02-04T15:29:01.874Z,10.88
2018-02-04T15:31:30.578Z,12.40
2018-02-04T15:33:58.965Z,10.60
2018-02-04T15:36:27.440Z,10.23
2018-02-04T15:38:55.792Z,14.82
2018-02-04T15:41:24.270Z,14.35
2018-02-04T15:43:52.979Z,11.73
2018-02-04T15:46:21.395Z,9.60
2018-02-04T15:48:49.938Z,11.27
2018-02-04T15:51:18.317Z,10.18
2018-02-04T15:53:47.452Z,12.15
2018-02-04T15:56:16.240Z,10.40
2018-02-04T15:58:44.593Z,12.45
2018-02-04T16:01:12.939Z,9.23
2018-02-04T16:03:41.300Z,10.52
2018-02-04T16:06:09.675Z,8.80
2018-02-04T16:08:38.476Z,9.15
2018-02-04T16:11:06.947Z,9.98
2018-02-04T16:13:35.313Z,12.32
2018-02-04T16:16:03.788Z,13.00
2018-02-04T16:18:32.171Z,15.27
2018-02-04T16:21:00.635Z,13.73
2018-02-04T16:23:29.056Z,15.82
2018-02-04T16:25:57.579Z,13.70
2018-02-04T16:28:25.989Z,14.25
2018-02-04T16:30:54.367Z,17.20
2018-02-04T16:33:22.845Z,15.60
2018-02-04T16:35:51.214Z,15.52
2018-02-04T16:38:19.618Z,18.17
2018-02-04T16:40:48.019Z,15.95
2018-02-04T16:43:16.394Z,15.32
2018-02-04T16:45:45.112Z,19.90
2018-02-04T16:48:13.469Z,16.17
2018-02-04T16:50:41.863Z,18.10
2018-02-04T16:53:10.255Z,14.82
2018-02-04T16:55:38.615Z,16.60
2018-02-04T16:58:07.286Z,16.98
2018-02-04T17:00:35.678Z,15.93
2018-02-04T17:03:04.063Z,17.02
2018-02-04T17:05:32.482Z,17.17
2018-02-04T17:08:00.852Z,15.40
2018-02-04T17:10:29.567Z,16.17
2018-02-04T17:12:58.027Z,18.87
2018-02-04T17:15:26.431Z,18.80
2018-02-04T17:17:54.833Z,20.62
2018-02-04T17:20:23.217Z,19.48
2018-02-04T17:22:51.973Z,20.85
2018-02-04T17:25:20.357Z,19.27
2018-02-04T17:27:48.728Z,18.02
2018-02-04T17:30:17.103Z,21.75
2018-02-04T17:32:45.494Z,21.33
2018-02-04T17:35:14.270Z,22.15
2018-02-04T17:37:42.688Z,18.52
2018-02-04T17:40:11.010Z,21.55
2018-02-04T17:42:39.366Z,21.08
2018-02-04T17:45:07.726Z,18.85
2018-02-04T17:47:36.158Z,20.95
2018-02-04T17:50:05.475Z,18.30
2018-02-04T17:52:33.861Z,21.90
2018-02-04T17:55:02.289Z,20.25
2018-02-04T17:57:31.597Z,18.95
2018-02-04T18:00:00.266Z,21.52
2018-02-04T18:02:28.729Z,19.12
2018-02-04T18:04:57.123Z,22.25
2018-02-04T18:07:25.512Z,25.08
2018-02-04T18:09:53.866Z,24.40
2018-02-04T18:12:22.583Z,22.65
2018-02-04T18:14:50.943Z,25.35
2018-02-04T18:17:19.345Z,25.33
2018-02-04T18:19:47.754Z,27.80
2018-02-04T18:22:16.155Z,25.50
2018-02-04T18:24:44.787Z,26.98
2018-02-04T18:27:13.174Z,26.40
2018-02-04T18:29:41.535Z,27.00
2018-02-04T18:32:09.960Z,27.02
2018-02-04T18:34:38.329Z,24.55
2018-02-04T18:37:07.327Z,23.60
2018-02-04T18:39:35.712Z,24.27
2018-02-04T18:42:04.073Z,26.70
2018-02-04T18:44:32.436Z,24.80
2018-02-04T18:47:00.792Z,28.38
2018-02-04T18:49:29.229Z,29.98
2018-02-04T18:51:57.723Z,27.75
2018-02-04T18:54:26.077Z,26.02
2018-02-04T18:56:54.431Z,28.98
2018-02-04T18:59:22.793Z,29.25
2018-02-04T19:01:51.537Z,27.87
2018-02-04T19:04:19.904Z,26.10
2018-02-04T19:06:48.387Z,27.83
2018-02-04T19:09:16.738Z,27.85
2018-02-04T19:11:45.143Z,28.73
2018-02-04T19:14:13.922Z,25.25
2018-02-04T19:16:42.516Z,26.73
2018-02-04T19:19:10.991Z,27.98
2018-02-04T19:21:39.370Z,25.77
2018-02-04T19:24:07.758Z,26.80
2018-02-04T19:26:36.197Z,30.67
2018-02-04T19:29:04.568Z,30.70
2018-02-04T19:31:32.931Z,25.95
2018-02-04T19:34:01.327Z,23.33
2018-02-04T19:36:29.702Z,27.05
2018-02-04T19:38:58.147Z,25.35
2018-02-04T19:41:26.597Z,26.27
2018-02-04T19:43:55.009Z,27.70
2018-02-04T19:46:23.430Z,31.92
2018-02-04T19:48:51.775Z,27.33
2018-02-04T19:51:20.225Z,30.60
2018-02-04T19:53:48.582Z,30.88
2018-02-04T19:56:16.951Z,25.35
2018-02-04T19:58:45.424Z,24.75
2018-02-04T20:01:13.788Z,28.25
2018-02-04T20:03:42.472Z,29.77
2018-02-04T20:06:10.905Z,25.27
2018-02-04T20:08:39.279Z,25.67
2018-02-04T20:11:07.706Z,25.77
2018-02-04T20:13:36.096Z,27.70
2018-02-04T20:16:04.515Z,24.95
2018-02-04T20:18:32.870Z,28.55
2018-02-04T20:21:01.320Z,27.62
2018-02-04T20:23:29.666Z,28.25
2018-02-04T20:25:58.151Z,26.55
2018-02-04T20:28:26.553Z,24.92
2018-02-04T20:30:54.951Z,25.70
2018-02-04T20:33:23.318Z,30.12
2018-02-04T20:35:51.684Z,28.17
2018-02-04T20:38:20.056Z,27.20
2018-02-04T20:40:48.720Z,25.12
2018-02-04T20:43:17.086Z,27.83
2018-02-04T20:45:45.434Z,23.15
2018-02-04T20:48:13.817Z,29.25
2018-02-04T20:50:42.190Z,30.15
2018-02-04T20:53:10.878Z,27.60
2018-02-04T20:55:39.250Z,30.10
2018-02-04T20:58:07.610Z,32.42
2018-02-04T21:00:35.958Z,30.30
2018-02-04T21:03:04.329Z,32.70
2018-02-04T21:05:33.011Z,29.05
2018-02-04T21:08:01.371Z,29.63
2018-02-04T21:10:29.727Z,30.65
2018-02-04T21:12:58.072Z,30.02
2018-02-04T21:15:26.436Z,26.98
2018-02-04T21:17:55.133Z,28.02
2018-02-04T21:20:23.500Z,23.73
2018-02-04T21:22:51.845Z,34.53
2018-02-04T21:25:20.201Z,30.62
2018-02-04T21:27:48.571Z,30.27
2018-02-04T21:30:17.217Z,30.73
2018-02-04T21:32:45.577Z,26.90
2018-02-04T21:35:14.054Z,28.25
2018-02-04T21:37:42.530Z,36.95
2018-02-04T21:40:10.899Z,34.33
2018-02-04T21:42:39.248Z,34.45
2018-02-04T21:45:07.594Z,32.28
2018-02-04T21:47:36.293Z,29.33
2018-02-04T21:50:04.716Z,31.25
2018-02-04T21:52:33.165Z,42.92
2018-02-04T21:55:01.544Z,30.00
2018-02-04T21:57:29.891Z,28.38
2018-02-04T21:59:58.599Z,33.47
2018-02-04T22:02:26.972Z,34.28
2018-02-04T22:04:55.402Z,29.45
2018-02-04T22:07:23.757Z,24.48
2018-02-04T22:09:52.326Z,29.60
2018-02-04T22:12:20.753Z,28.67
2018-02-04T22:14:49.107Z,29.00
2018-02-04T22:17:17.467Z,37.78
2018-02-04T22:19:45.830Z,30.83
2018-02-04T22:22:14.206Z,32.05
2018-02-04T22:24:42.899Z,34.17
2018-02-04T22:27:11.237Z,30.40
2018-02-04T22:29:39.589Z,31.62
2018-02-04T22:32:07.993Z,28.95
2018-02-04T22:34:36.348Z,34.92
2018-02-04T22:37:04.917Z,35.00
2018-02-04T22:39:33.274Z,28.55
2018-02-04T22:42:01.627Z,34.70
2018-02-04T22:44:29.979Z,31.15
2018-02-04T22:46:58.342Z,32.78
2018-02-04T22:49:26.719Z,29.70
2018-02-04T22:51:55.103Z,34.33
2018-02-04T22:54:23.580Z,35.63
2018-02-04T22:56:51.947Z,30.15
2018-02-04T22:59:20.311Z,30.23
2018-02-04T23:01:48.661Z,30.00
2018-02-04T23:04:17.013Z,28.45
2018-02-04T23:06:45.448Z,26.65
2018-02-04T23:09:13.798Z,32.65
2018-02-04T23:11:42.173Z,34.78
2018-02-04T23:14:10.547Z,30.45
2018-02-04T23:16:38.916Z,34.28
2018-02-04T23:19:07.268Z,32.63
2018-02-04T23:21:35.614Z,35.50
2018-02-04T23:24:03.964Z,30.25
2018-02-04T23:26:32.326Z,30.77
2018-02-04T23:29:00.684Z,28.42
2018-02-04T23:31:29.051Z,35.97
2018-02-04T23:33:57.408Z,30.17
2018-02-04T23:36:25.753Z,31.08
2018-02-04T23:38:54.128Z,32.03
2018-02-04T23:41:22.493Z,36.15
2018-02-04T23:43:50.882Z,34.47
2018-02-04T23:46:19.226Z,30.55
2018-02-04T23:48:47.567Z,38.00
2018-02-04T23:51:16.281Z,38.15
2018-02-04T23:53:44.704Z,34.58
2018-02-04T23:56:13.066Z,35.10
2018-02-04T23:58:41.560Z,36.40
